createdAt,value
2023-04-19T00:03:40.316Z,5.28
2023-04-19T00:08:42.400Z,5.05
2023-04-19T00:13:43.775Z,5.65
2023-04-19T00:18:46.585Z,5.32
2023-04-19T00:23:48.004Z,4.72
2023-04-19T00:28:49.323Z,4.78
2023-04-19T00:33:50.989Z,4.57
2023-04-19T00:38:52.392Z,5.43
2023-04-19T00:43:53.986Z,4.60
2023-04-19T00:48:55.733Z,5.40
2023-04-19T00:53:57.758Z,6.68
2023-04-19T00:58:59.650Z,6.45
2023-04-19T01:04:02.231Z,6.43
2023-04-19T01:09:04.566Z,5.85
2023-04-19T01:14:05.859Z,6.20
2023-04-19T01:19:07.414Z,6.22
2023-04-19T01:24:08.768Z,6.57
2023-04-19T01:29:10.181Z,7.00
2023-04-19T01:34:11.463Z,7.93
2023-04-19T01:39:12.811Z,6.82
2023-04-19T01:44:14.361Z,7.03
2023-04-19T01:49:16.331Z,7.65
2023-04-19T01:54:17.850Z,8.00
2023-04-19T01:59:19.333Z,8.00
2023-04-19T02:04:22.052Z,9.57
2023-04-19T02:09:23.421Z,8.50
2023-04-19T02:14:24.717Z,8.15
2023-04-19T02:19:26.082Z,9.43
2023-04-19T02:24:27.378Z,8.82
2023-04-19T02:29:28.803Z,9.23
2023-04-19T02:34:31.141Z,8.43
2023-04-19T02:39:32.537Z,9.43
2023-04-19T02:44:33.846Z,10.30
2023-04-19T02:49:38.109Z,9.50
2023-04-19T02:54:39.417Z,10.52
2023-04-19T02:59:41.182Z,9.35
2023-04-19T03:04:43.361Z,10.88
2023-04-19T03:09:44.726Z,10.50
2023-04-19T03:14:46.187Z,11.02
2023-04-19T03:19:47.544Z,11.43
2023-04-19T03:24:48.918Z,10.93
2023-04-19T03:29:50.246Z,11.30
2023-04-19T03:34:51.619Z,11.60
2023-04-19T03:39:52.979Z,12.00
2023-04-19T03:44:54.396Z,12.35
2023-04-19T03:49:56.015Z,10.90
2023-04-19T03:54:57.547Z,11.52
2023-04-19T03:59:59.929Z,11.10
2023-04-19T04:05:01.322Z,15.00
2023-04-19T04:10:03.409Z,10.90
2023-04-19T04:15:05.381Z,11.10
2023-04-19T04:20:08.281Z,9.10
2023-04-19T04:25:10.162Z,11.00
2023-04-19T04:30:12.171Z,9.95
2023-04-19T04:35:13.618Z,10.75
2023-04-19T04:40:15.820Z,10.65
2023-04-19T04:45:18.296Z,10.57
2023-04-19T04:50:20.062Z,11.15
2023-04-19T04:55:21.527Z,11.02
2023-04-19T05:00:23.828Z,11.32
2023-04-19T05:05:25.432Z,11.13
2023-04-19T05:10:26.803Z,11.20
2023-04-19T05:15:28.172Z,10.98
2023-04-19T05:20:30.273Z,11.20
2023-04-19T05:25:31.932Z,11.98
2023-04-19T05:30:33.496Z,13.32
2023-04-19T05:35:34.933Z,11.68
2023-04-19T05:40:36.637Z,13.60
2023-04-19T05:45:38.100Z,10.63
2023-04-19T05:50:39.604Z,10.30
2023-04-19T05:55:41.167Z,10.23
2023-04-19T06:00:42.841Z,9.98
2023-04-19T06:05:44.290Z,9.27
2023-04-19T06:10:54.978Z,12.23
2023-04-19T06:15:59.762Z,8.50
2023-04-19T06:21:01.144Z,8.73
2023-04-19T06:26:02.560Z,7.80
2023-04-19T06:31:04.882Z,9.35
2023-04-19T06:36:06.717Z,7.88
2023-04-19T06:41:09.391Z,6.82
2023-04-19T06:46:11.449Z,8.05
2023-04-19T06:51:12.937Z,7.72
2023-04-19T06:56:14.394Z,11.45
2023-04-19T07:01:15.952Z,6.53
2023-04-19T07:06:17.414Z,7.35
2023-04-19T07:11:20.332Z,5.78
2023-04-19T07:16:22.843Z,6.30
2023-04-19T07:21:32.714Z,6.50
2023-04-19T07:26:34.646Z,5.60
2023-04-19T07:31:36.781Z,7.60
2023-04-19T07:36:39.012Z,5.97
2023-04-19T07:41:40.406Z,4.40
2023-04-19T07:46:44.973Z,6.40
2023-04-19T07:51:46.374Z,5.15
2023-04-19T07:56:47.765Z,5.28
2023-04-19T08:01:49.595Z,4.28
2023-04-19T08:06:52.563Z,6.93
2023-04-19T08:11:53.963Z,3.75
2023-04-19T08:17:22.160Z,4.75
2023-04-19T08:22:17.997Z,4.15
2023-04-19T08:27:20.203Z,3.60
2023-04-19T08:32:21.788Z,4.28
2023-04-19T08:37:23.180Z,5.45
2023-04-19T08:42:35.554Z,4.28
2023-04-19T08:52:54.847Z,6.00
2023-04-19T08:57:58.891Z,4.05
2023-04-19T09:03:00.570Z,3.40
2023-04-19T09:08:25.054Z,4.47
2023-04-19T09:13:27.912Z,4.47
2023-04-19T09:18:32.193Z,4.55
2023-04-19T09:23:46.760Z,7.95
2023-04-19T09:29:04.541Z,3.37
2023-04-19T09:34:14.307Z,4.43
2023-04-19T09:39:29.125Z,3.55
2023-04-19T09:45:01.773Z,3.13
2023-04-19T09:50:19.248Z,3.55
2023-04-19T09:55:27.754Z,3.53
2023-04-19T10:00:38.763Z,3.20
2023-04-19T10:05:47.001Z,5.70
2023-04-19T10:10:54.747Z,4.85
2023-04-19T10:16:01.835Z,4.10
2023-04-19T10:21:14.976Z,4.00
2023-04-19T10:26:16.441Z,3.30
2023-04-19T10:31:23.854Z,3.38
2023-04-19T10:36:27.385Z,3.60
2023-04-19T10:41:59.104Z,2.85
2023-04-19T10:47:00.663Z,3.67
2023-04-19T10:52:01.983Z,3.20
2023-04-19T10:57:11.116Z,2.05
2023-04-19T11:02:21.566Z,3.78
2023-04-19T11:07:24.667Z,2.95
2023-04-19T11:12:26.659Z,2.30
2023-04-19T11:17:32.494Z,1.55
2023-04-19T11:22:45.720Z,2.88
2023-04-19T11:27:53.581Z,4.22
2023-04-19T11:32:58.197Z,2.10
2023-04-19T11:37:59.728Z,1.58
2023-04-19T11:43:03.166Z,2.05
2023-04-19T11:48:05.602Z,2.25
2023-04-19T11:53:22.353Z,2.25
2023-04-19T11:58:32.006Z,2.65
2023-04-19T12:03:54.508Z,2.40
2023-04-19T12:08:57.230Z,1.52
2023-04-19T12:14:09.083Z,1.45
2023-04-19T12:19:17.382Z,0.90
2023-04-19T12:24:19.229Z,2.28
2023-04-19T12:29:20.639Z,2.63
2023-04-19T12:39:23.564Z,3.03
2023-04-19T12:44:24.962Z,2.78
2023-04-19T12:49:26.351Z,1.37
2023-04-19T12:54:27.640Z,1.27
2023-04-19T12:59:29.378Z,1.77
2023-04-19T13:04:31.112Z,1.60
2023-04-19T13:09:32.728Z,2.87
2023-04-19T13:14:34.609Z,1.63
2023-04-19T13:19:36.048Z,1.15
2023-04-19T13:24:37.379Z,1.45
2023-04-19T13:29:38.921Z,1.95
2023-04-19T13:34:40.547Z,1.83
2023-04-19T13:39:42.776Z,3.25
2023-04-19T13:44:44.182Z,1.40
2023-04-19T13:49:51.856Z,1.52
2023-04-19T13:54:53.243Z,1.42
2023-04-19T13:59:54.608Z,1.45
2023-04-19T14:04:59.161Z,1.67
2023-04-19T14:10:00.674Z,2.63
2023-04-19T14:15:02.314Z,3.15
2023-04-19T14:20:06.855Z,2.80
2023-04-19T14:25:08.970Z,1.52
2023-04-19T14:30:10.584Z,1.70
2023-04-19T14:35:12.013Z,2.65
2023-04-19T14:40:13.647Z,1.55
2023-04-19T14:45:15.170Z,2.08
2023-04-19T14:50:16.660Z,2.42
2023-04-19T14:55:18.048Z,4.00
2023-04-19T15:00:19.665Z,1.20
2023-04-19T15:05:23.840Z,2.45
2023-04-19T15:10:25.461Z,2.35
2023-04-19T15:15:27.034Z,3.40
2023-04-19T15:20:28.456Z,4.25
2023-04-19T15:25:30.114Z,2.65
2023-04-19T15:30:31.560Z,3.75
2023-04-19T15:35:33.161Z,3.90
2023-04-19T15:40:38.353Z,1.98
2023-04-19T15:45:39.619Z,4.93
2023-04-19T15:50:43.543Z,5.53
2023-04-19T15:55:47.834Z,2.20
2023-04-19T16:00:49.488Z,3.58
2023-04-19T16:05:51.620Z,2.45
2023-04-19T16:10:53.053Z,2.55
2023-04-19T16:15:54.480Z,3.25
2023-04-19T16:20:55.900Z,3.30
2023-04-19T16:25:57.428Z,2.05
2023-04-19T16:30:58.831Z,2.33
2023-04-19T16:36:00.128Z,2.63
2023-04-19T16:41:04.431Z,3.58
2023-04-19T16:46:07.159Z,2.55
2023-04-19T16:51:08.589Z,4.07
2023-04-19T16:56:09.902Z,4.53
2023-04-19T17:01:11.296Z,2.42
2023-04-19T17:06:12.634Z,3.35
2023-04-19T17:11:13.944Z,3.20
2023-04-19T17:16:15.411Z,3.70
2023-04-19T17:21:16.870Z,4.13
2023-04-19T17:26:18.330Z,2.50
2023-04-19T17:31:19.791Z,3.67
2023-04-19T17:36:21.480Z,2.53
2023-04-19T17:41:22.780Z,2.55
2023-04-19T17:46:24.174Z,2.40
2023-04-19T17:51:25.558Z,2.40
2023-04-19T17:56:26.936Z,3.38
2023-04-19T18:01:30.057Z,2.80
2023-04-19T18:06:31.746Z,2.78
2023-04-19T18:11:33.256Z,2.45
2023-04-19T18:16:35.415Z,2.45
2023-04-19T18:21:36.948Z,3.00
2023-04-19T18:26:40.826Z,2.33
2023-04-19T18:31:42.513Z,1.67
2023-04-19T18:36:43.922Z,3.47
2023-04-19T18:41:45.468Z,3.50
2023-04-19T18:46:46.776Z,4.05
2023-04-19T18:51:48.195Z,2.65
2023-04-19T18:57:21.135Z,3.15
2023-04-19T19:02:11.280Z,2.75
2023-04-19T19:07:33.349Z,3.35
2023-04-19T19:12:34.192Z,3.72
2023-04-19T19:17:35.741Z,3.58
2023-04-19T19:22:37.254Z,2.80
2023-04-19T19:27:39.053Z,5.07
2023-04-19T19:32:40.683Z,2.90
2023-04-19T19:37:42.051Z,5.88
2023-04-19T19:42:43.386Z,3.00
2023-04-19T19:47:46.062Z,4.93
2023-04-19T19:52:49.824Z,4.60
2023-04-19T20:02:56.624Z,5.70
2023-04-19T20:08:10.403Z,3.95
2023-04-19T20:13:13.612Z,2.47
2023-04-19T20:18:15.166Z,3.55
2023-04-19T20:23:19.051Z,4.20
2023-04-19T20:28:20.380Z,4.57
2023-04-19T20:33:22.381Z,3.88
2023-04-19T20:38:24.371Z,4.72
2023-04-19T20:43:26.004Z,3.60
2023-04-19T20:48:27.343Z,5.97
2023-04-19T20:53:28.896Z,2.50
2023-04-19T20:58:32.089Z,2.95
2023-04-19T21:03:33.951Z,3.53
2023-04-19T21:08:35.960Z,5.03
2023-04-19T21:13:37.234Z,3.65
2023-04-19T21:18:38.567Z,5.63
2023-04-19T21:23:40.161Z,3.10
2023-04-19T21:28:41.492Z,3.40
2023-04-19T21:33:42.854Z,7.32
2023-04-19T21:38:44.265Z,3.20
2023-04-19T21:43:45.620Z,4.03
2023-04-19T21:48:46.963Z,3.72
2023-04-19T21:53:48.337Z,5.43
2023-04-19T21:58:49.702Z,4.95
2023-04-19T22:03:51.243Z,2.75
2023-04-19T22:08:53.469Z,2.53
2023-04-19T22:13:55.514Z,4.35
2023-04-19T22:18:57.799Z,4.72
2023-04-19T22:23:59.121Z,3.25
2023-04-19T22:29:00.440Z,5.03
2023-04-19T22:34:01.832Z,3.33
2023-04-19T22:39:04.468Z,4.00
2023-04-19T22:44:05.788Z,4.25
2023-04-19T22:49:08.445Z,3.95
2023-04-19T22:54:09.760Z,3.78
2023-04-19T22:59:11.220Z,6.50
2023-04-19T23:04:14.789Z,4.03
2023-04-19T23:09:18.017Z,3.33
2023-04-19T23:14:19.728Z,3.78
2023-04-19T23:19:22.707Z,5.10
2023-04-19T23:24:24.287Z,4.93
2023-04-19T23:29:25.632Z,3.90
2023-04-19T23:34:27.039Z,6.00
2023-04-19T23:39:28.330Z,4.50
2023-04-19T23:44:30.102Z,4.07
2023-04-19T23:49:31.844Z,4.68
2023-04-19T23:54:33.435Z,8.10
2023-04-19T23:59:36.478Z,5.20
